createdAt,value
2023-01-30T00:02:43.069Z,12.89
2023-01-30T00:07:46.886Z,12.91
2023-01-30T00:12:48.940Z,12.91
2023-01-30T00:17:50.891Z,12.88
2023-01-30T00:23:00.752Z,12.88
2023-01-30T00:28:03.062Z,12.86
2023-01-30T00:33:05.331Z,12.88
2023-01-30T00:38:07.449Z,12.91
2023-01-30T00:43:34.482Z,12.92
2023-01-30T00:48:36.748Z,12.90
2023-01-30T00:53:38.725Z,12.89
2023-01-30T00:58:40.705Z,12.88
2023-01-30T01:03:42.791Z,12.89
2023-01-30T01:08:44.879Z,12.89
2023-01-30T01:13:48.027Z,12.92
2023-01-30T01:18:50.821Z,12.93
2023-01-30T01:23:56.575Z,12.93
2023-01-30T01:28:59.551Z,12.89
2023-01-30T01:34:01.759Z,12.91
2023-01-30T01:39:04.186Z,12.89
2023-01-30T01:44:08.429Z,12.89
2023-01-30T01:49:37.367Z,12.92
2023-01-30T01:54:47.334Z,12.93
2023-01-30T02:00:05.371Z,12.92
2023-01-30T02:05:18.052Z,12.88
2023-01-30T02:10:25.575Z,12.86
2023-01-30T02:15:27.601Z,12.87
2023-01-30T02:20:48.582Z,12.87
2023-01-30T02:26:22.395Z,12.88
2023-01-30T02:31:47.850Z,12.87
2023-01-30T02:37:02.286Z,12.86
2023-01-30T02:42:14.819Z,12.86
2023-01-30T02:47:24.529Z,12.87
2023-01-30T02:52:29.071Z,12.86
2023-01-30T02:57:31.241Z,12.89
2023-01-30T03:03:07.561Z,12.91
2023-01-30T03:08:20.190Z,12.92
2023-01-30T03:13:55.565Z,12.88
2023-01-30T03:19:01.082Z,12.89
2023-01-30T03:24:03.166Z,12.87
2023-01-30T03:29:06.063Z,12.87
2023-01-30T03:34:08.172Z,12.88
2023-01-30T03:39:10.633Z,12.91
2023-01-30T03:44:12.695Z,12.93
2023-01-30T03:49:17.267Z,12.92
2023-01-30T03:54:19.826Z,12.89
2023-01-30T03:59:22.471Z,12.89
2023-01-30T04:04:31.326Z,12.89
2023-01-30T04:09:34.019Z,12.91
2023-01-30T04:14:37.246Z,12.92
2023-01-30T04:20:02.801Z,12.92
2023-01-30T04:25:06.889Z,12.89
2023-01-30T04:30:09.720Z,12.89
2023-01-30T04:35:12.462Z,12.89
2023-01-30T04:40:16.006Z,12.90
2023-01-30T04:45:18.478Z,12.92
2023-01-30T04:50:20.791Z,12.94
2023-01-30T04:55:22.755Z,12.93
2023-01-30T05:00:25.696Z,12.92
2023-01-30T05:05:35.957Z,12.91
2023-01-30T05:10:37.956Z,12.90
2023-01-30T05:15:40.549Z,12.90
2023-01-30T05:20:42.694Z,12.92
2023-01-30T05:25:44.731Z,12.94
2023-01-30T05:30:47.450Z,12.93
2023-01-30T05:35:50.450Z,12.93
2023-01-30T05:41:00.046Z,12.90
2023-01-30T05:46:04.257Z,12.89
2023-01-30T05:51:06.591Z,12.89
2023-01-30T05:56:09.576Z,12.91
2023-01-30T06:01:13.070Z,12.93
2023-01-30T06:06:15.436Z,12.97
2023-01-30T06:11:17.705Z,12.94
2023-01-30T06:16:20.105Z,12.95
2023-01-30T06:21:22.224Z,12.92
2023-01-30T06:26:24.333Z,12.93
2023-01-30T06:31:26.431Z,12.92
2023-01-30T06:36:28.681Z,12.96
2023-01-30T06:41:30.704Z,12.96
2023-01-30T06:46:32.750Z,12.95
2023-01-30T06:51:34.863Z,12.92
2023-01-30T06:56:36.909Z,12.93
2023-01-30T07:01:39.805Z,12.91
2023-01-30T07:06:41.812Z,12.91
2023-01-30T07:11:43.889Z,12.94
2023-01-30T07:16:45.993Z,12.95
2023-01-30T07:21:48.173Z,12.94
2023-01-30T07:26:50.292Z,12.93
2023-01-30T07:31:52.748Z,12.92
2023-01-30T07:36:54.791Z,12.92
2023-01-30T07:41:57.070Z,12.92
2023-01-30T07:47:00.900Z,12.94
2023-01-30T07:52:02.933Z,12.94
2023-01-30T07:57:05.152Z,12.85
2023-01-30T08:02:10.432Z,12.90
2023-01-30T08:07:12.451Z,12.88
2023-01-30T08:12:14.670Z,12.87
2023-01-30T08:17:16.730Z,12.88
2023-01-30T08:22:18.881Z,12.92
2023-01-30T08:27:21.067Z,12.93
2023-01-30T08:32:23.003Z,12.91
2023-01-30T08:37:25.290Z,12.85
2023-01-30T08:42:27.313Z,12.87
2023-01-30T08:47:29.329Z,12.86
2023-01-30T08:52:33.234Z,12.86
2023-01-30T08:57:36.104Z,12.91
2023-01-30T09:02:38.804Z,12.91
2023-01-30T09:07:40.890Z,12.92
2023-01-30T09:12:43.030Z,12.91
2023-01-30T09:17:45.268Z,12.90
2023-01-30T09:22:47.626Z,12.89
2023-01-30T09:27:50.476Z,12.86
2023-01-30T09:32:52.758Z,12.91
2023-01-30T09:37:54.866Z,12.92
2023-01-30T09:43:21.625Z,12.92
2023-01-30T09:48:30.095Z,12.92
2023-01-30T09:53:44.117Z,12.87
2023-01-30T09:58:57.330Z,12.86
2023-01-30T10:04:14.028Z,12.88
2023-01-30T10:09:28.200Z,12.90
2023-01-30T10:14:45.433Z,12.91
2023-01-30T10:19:59.288Z,12.91
2023-01-30T10:25:28.216Z,12.88
2023-01-30T10:30:31.037Z,12.88
2023-01-30T10:35:37.729Z,12.86
2023-01-30T10:40:55.168Z,12.86
2023-01-30T10:46:11.050Z,12.89
2023-01-30T10:51:26.491Z,12.88
2023-01-30T10:56:41.464Z,12.87
2023-01-30T11:01:45.617Z,12.85
2023-01-30T11:06:48.224Z,12.84
2023-01-30T11:11:54.740Z,12.84
2023-01-30T11:16:58.700Z,12.85
2023-01-30T11:22:04.525Z,12.88
2023-01-30T11:27:16.487Z,12.87
2023-01-30T11:32:37.345Z,12.84
2023-01-30T11:37:42.181Z,12.77
2023-01-30T11:42:46.253Z,12.83
2023-01-30T11:47:57.896Z,12.83
2023-01-30T11:53:13.708Z,12.84
2023-01-30T11:58:16.175Z,12.88
2023-01-30T12:03:23.546Z,12.89
2023-01-30T12:08:43.613Z,12.87
2023-01-30T12:13:46.718Z,12.85
2023-01-30T12:19:12.311Z,12.85
2023-01-30T12:24:28.863Z,12.85
2023-01-30T12:29:36.138Z,12.86
2023-01-30T12:34:38.366Z,12.88
2023-01-30T12:40:12.247Z,12.89
2023-01-30T12:45:20.604Z,12.88
2023-01-30T12:50:37.120Z,12.87
2023-01-30T12:55:58.719Z,12.85
2023-01-30T13:01:22.511Z,12.87
2023-01-30T13:06:30.387Z,12.87
2023-01-30T13:11:53.321Z,12.91
2023-01-30T13:17:03.642Z,12.91
2023-01-30T13:22:22.865Z,12.88
2023-01-30T13:27:27.561Z,12.88
2023-01-30T13:32:43.841Z,12.87
2023-01-30T13:37:49.208Z,12.88
2023-01-30T13:42:59.373Z,12.90
2023-01-30T13:48:35.393Z,12.93
2023-01-30T13:54:30.893Z,12.91
2023-01-30T13:59:56.047Z,12.91
2023-01-30T14:04:58.638Z,12.90
2023-01-30T14:10:03.567Z,12.89
2023-01-30T14:15:19.082Z,12.91
2023-01-30T14:20:21.573Z,12.89
2023-01-30T14:25:23.674Z,12.94
2023-01-30T14:30:31.746Z,12.93
2023-01-30T14:35:34.033Z,12.92
2023-01-30T14:40:38.700Z,12.92
2023-01-30T14:45:57.224Z,12.91
2023-01-30T14:51:27.179Z,12.92
2023-01-30T14:56:38.448Z,12.95
2023-01-30T15:02:14.931Z,12.96
2023-01-30T15:07:24.194Z,12.96
2023-01-30T15:12:38.307Z,12.94
2023-01-30T15:18:07.760Z,12.94
2023-01-30T15:23:26.480Z,12.93
2023-01-30T15:29:07.613Z,12.94
2023-01-30T15:34:20.081Z,12.97
2023-01-30T15:39:25.084Z,12.98
2023-01-30T15:44:53.195Z,12.97
2023-01-30T15:50:03.435Z,12.96
2023-01-30T15:55:05.678Z,12.94
2023-01-30T16:00:11.857Z,12.94
2023-01-30T16:05:25.066Z,12.96
2023-01-30T16:10:29.607Z,13.00
2023-01-30T16:16:07.608Z,12.98
2023-01-30T16:21:26.684Z,12.98
2023-01-30T16:26:29.803Z,12.98
2023-01-30T16:31:38.662Z,12.99
2023-01-30T16:36:41.486Z,12.99
2023-01-30T16:41:44.905Z,13.01
2023-01-30T16:47:06.436Z,13.03
2023-01-30T16:52:19.730Z,13.03
2023-01-30T16:57:37.792Z,13.01
2023-01-30T17:02:57.826Z,13.02
2023-01-30T17:08:00.697Z,13.02
2023-01-30T17:13:03.484Z,13.02
2023-01-30T17:18:06.031Z,13.03
2023-01-30T17:23:10.170Z,13.02
2023-01-30T17:28:21.408Z,13.03
2023-01-30T17:33:23.746Z,13.03
2023-01-30T17:38:25.833Z,13.02
2023-01-30T17:43:27.859Z,13.02
2023-01-30T17:48:29.944Z,13.02
2023-01-30T17:53:32.100Z,13.04
2023-01-30T17:58:34.259Z,13.04
2023-01-30T18:03:36.331Z,13.06
2023-01-30T18:08:38.372Z,13.07
2023-01-30T18:13:43.311Z,13.06
2023-01-30T18:18:45.466Z,12.99
2023-01-30T18:23:47.668Z,13.03
2023-01-30T18:28:49.829Z,13.03
2023-01-30T18:33:53.488Z,13.05
2023-01-30T18:38:55.597Z,13.06
2023-01-30T18:44:03.137Z,13.06
2023-01-30T18:49:05.286Z,13.04
2023-01-30T18:54:07.418Z,13.03
2023-01-30T18:59:10.415Z,13.04
2023-01-30T19:04:12.550Z,13.04
2023-01-30T19:09:16.382Z,13.05
2023-01-30T19:14:18.541Z,13.06
2023-01-30T19:19:20.645Z,13.04
2023-01-30T19:24:24.031Z,13.02
2023-01-30T19:29:26.143Z,13.05
2023-01-30T19:34:28.354Z,13.01
2023-01-30T19:39:30.327Z,13.02
2023-01-30T19:44:32.350Z,13.04
2023-01-30T19:49:35.906Z,13.04
2023-01-30T19:54:38.495Z,12.98
2023-01-30T19:59:40.580Z,12.99
2023-01-30T20:04:42.582Z,12.98
2023-01-30T20:09:44.701Z,12.98
2023-01-30T20:14:46.748Z,13.01
2023-01-30T20:19:48.824Z,13.04
2023-01-30T20:24:50.954Z,13.02
2023-01-30T20:29:53.271Z,12.99
2023-01-30T20:34:55.387Z,13.00
2023-01-30T20:39:57.578Z,13.00
2023-01-30T20:44:59.666Z,12.98
2023-01-30T20:50:01.717Z,13.02
2023-01-30T20:55:04.259Z,13.05
2023-01-30T21:00:07.381Z,13.06
2023-01-30T21:05:09.509Z,13.05
2023-01-30T21:10:11.800Z,13.05
2023-01-30T21:15:13.968Z,13.06
2023-01-30T21:20:16.389Z,13.03
2023-01-30T21:25:20.306Z,13.02
2023-01-30T21:30:22.494Z,13.02
2023-01-30T21:35:24.528Z,13.05
2023-01-30T21:40:45.040Z,13.04
2023-01-30T21:45:47.174Z,13.02
2023-01-30T21:50:50.019Z,13.01
2023-01-30T21:55:53.307Z,12.98
2023-01-30T22:00:55.434Z,12.98
2023-01-30T22:05:57.606Z,13.02
2023-01-30T22:11:16.548Z,13.03
2023-01-30T22:16:27.676Z,13.01
2023-01-30T22:21:32.731Z,13.01
2023-01-30T22:26:35.270Z,13.00
2023-01-30T22:31:40.684Z,13.00
2023-01-30T22:36:42.863Z,13.01
2023-01-30T22:41:44.948Z,13.02
2023-01-30T22:46:47.009Z,13.03
2023-01-30T22:51:49.131Z,13.04
2023-01-30T22:56:52.083Z,13.03
2023-01-30T23:01:54.235Z,13.02
2023-01-30T23:06:56.730Z,13.03
2023-01-30T23:12:17.767Z,13.03
2023-01-30T23:17:38.273Z,13.05
2023-01-30T23:22:40.305Z,13.05
2023-01-30T23:27:42.296Z,13.03
2023-01-30T23:32:44.405Z,13.03
2023-01-30T23:38:05.189Z,12.99
2023-01-30T23:43:07.265Z,13.00
2023-01-30T23:48:09.893Z,13.01
2023-01-30T23:53:11.980Z,13.03
2023-01-30T23:58:14.071Z,13.04
